createdAt,value
2023-01-18T00:00:09.482Z,1999.90
2023-01-18T00:01:09.461Z,1999.90
2023-01-18T00:02:09.558Z,555.00
2023-01-18T00:03:09.443Z,644.60
2023-01-18T00:04:09.437Z,605.20
2023-01-18T00:05:09.449Z,628.30
2023-01-18T00:06:09.397Z,644.30
2023-01-18T00:07:09.438Z,661.80
2023-01-18T00:08:09.378Z,615.00
2023-01-18T00:09:09.371Z,816.00
2023-01-18T00:10:09.362Z,708.70
2023-01-18T00:11:09.356Z,828.10
2023-01-18T00:12:09.395Z,1325.10
2023-01-18T00:13:09.327Z,819.20
2023-01-18T00:14:09.332Z,1999.90
2023-01-18T00:15:09.304Z,1999.90
2023-01-18T00:16:09.314Z,1999.90
2023-01-18T00:17:09.320Z,1999.90
2023-01-18T00:18:09.246Z,1999.90
2023-01-18T00:19:09.245Z,751.20
2023-01-18T00:20:09.254Z,627.20
2023-01-18T00:21:09.253Z,711.10
2023-01-18T00:22:09.259Z,956.50
2023-01-18T00:23:09.225Z,1999.90
2023-01-18T00:24:09.221Z,1999.90
2023-01-18T00:25:09.194Z,1999.90
2023-01-18T00:26:09.204Z,585.90
2023-01-18T00:27:09.227Z,697.10
2023-01-18T00:28:09.173Z,675.60
2023-01-18T00:29:09.155Z,730.90
2023-01-18T00:30:09.132Z,1074.50
2023-01-18T00:31:09.128Z,741.90
2023-01-18T00:32:09.170Z,704.50
2023-01-18T00:33:09.107Z,458.60
2023-01-18T00:34:09.096Z,494.00
2023-01-18T00:35:09.070Z,523.20
2023-01-18T00:36:09.064Z,457.00
2023-01-18T00:37:09.096Z,469.80
2023-01-18T00:38:09.047Z,459.10
2023-01-18T00:39:09.037Z,452.50
2023-01-18T00:40:09.034Z,462.00
2023-01-18T00:41:09.026Z,490.30
2023-01-18T00:42:09.047Z,511.20
2023-01-18T00:43:09.014Z,509.60
2023-01-18T00:44:08.994Z,526.20
2023-01-18T00:45:08.956Z,492.50
2023-01-18T00:46:09.010Z,475.60
2023-01-18T00:47:08.996Z,480.10
2023-01-18T00:48:08.945Z,468.00
2023-01-18T00:49:08.930Z,467.10
2023-01-18T00:50:08.906Z,460.40
2023-01-18T00:51:08.904Z,456.70
2023-01-18T00:52:08.934Z,445.80
2023-01-18T00:53:08.893Z,435.30
2023-01-18T00:54:08.879Z,429.40
2023-01-18T00:55:08.874Z,425.00
2023-01-18T00:56:08.882Z,419.10
2023-01-18T00:57:08.889Z,404.90
2023-01-18T00:58:08.837Z,412.30
2023-01-18T00:59:08.804Z,392.40
2023-01-18T01:00:08.807Z,422.50
2023-01-18T01:01:08.873Z,399.70
2023-01-18T01:02:08.948Z,409.80
2023-01-18T01:03:08.775Z,460.80
2023-01-18T01:04:08.775Z,357.90
2023-01-18T01:05:08.761Z,399.90
2023-01-18T01:06:08.750Z,428.50
2023-01-18T01:07:08.790Z,500.70
2023-01-18T01:08:08.704Z,399.80
2023-01-18T01:09:08.716Z,323.00
2023-01-18T01:10:08.689Z,422.10
2023-01-18T01:11:08.694Z,862.80
2023-01-18T01:12:08.742Z,814.10
2023-01-18T01:13:08.696Z,361.10
2023-01-18T01:14:08.632Z,228.90
2023-01-18T01:15:08.631Z,354.50
2023-01-18T01:16:08.622Z,332.30
2023-01-18T01:17:08.680Z,162.90
2023-01-18T01:18:08.601Z,539.70
2023-01-18T01:19:08.621Z,494.60
2023-01-18T01:20:08.586Z,481.20
2023-01-18T01:21:08.571Z,430.20
2023-01-18T01:22:08.593Z,439.40
2023-01-18T01:23:08.558Z,169.40
2023-01-18T01:24:08.552Z,359.70
2023-01-18T01:25:08.539Z,449.60
2023-01-18T01:26:08.569Z,426.30
2023-01-18T01:27:08.592Z,353.60
2023-01-18T01:28:08.503Z,407.20
2023-01-18T01:29:08.492Z,387.70
2023-01-18T01:30:08.485Z,369.80
2023-01-18T01:31:08.523Z,344.20
2023-01-18T01:32:08.508Z,271.80
2023-01-18T01:33:08.456Z,450.10
2023-01-18T01:34:08.434Z,394.60
2023-01-18T01:35:08.446Z,370.60
2023-01-18T01:36:08.405Z,365.50
2023-01-18T01:37:08.453Z,360.60
2023-01-18T01:38:08.411Z,313.10
2023-01-18T01:39:08.398Z,382.20
2023-01-18T01:40:08.373Z,371.20
2023-01-18T01:41:08.352Z,354.00
2023-01-18T01:42:08.381Z,335.80
2023-01-18T01:43:08.323Z,326.50
2023-01-18T01:44:08.338Z,299.00
2023-01-18T01:45:08.311Z,265.80
2023-01-18T01:46:08.345Z,292.00
2023-01-18T01:47:08.334Z,266.10
2023-01-18T01:48:08.303Z,258.70
2023-01-18T01:49:08.326Z,250.60
2023-01-18T01:50:08.240Z,240.90
2023-01-18T01:51:08.227Z,231.50
2023-01-18T01:52:08.295Z,310.40
2023-01-18T01:53:08.220Z,299.30
2023-01-18T01:54:08.226Z,295.20
2023-01-18T01:55:08.196Z,286.00
2023-01-18T01:56:08.183Z,265.40
2023-01-18T01:57:08.247Z,245.50
2023-01-18T01:58:08.174Z,220.40
2023-01-18T01:59:08.175Z,163.00
2023-01-18T02:00:08.169Z,339.70
2023-01-18T02:01:08.279Z,359.70
2023-01-18T02:02:08.264Z,336.10
2023-01-18T02:03:08.136Z,240.00
2023-01-18T02:04:08.146Z,278.70
2023-01-18T02:05:08.086Z,164.50
2023-01-18T02:06:08.093Z,255.50
2023-01-18T02:07:08.115Z,358.60
2023-01-18T02:08:08.050Z,285.80
2023-01-18T02:09:08.057Z,311.60
2023-01-18T02:10:08.065Z,307.50
2023-01-18T02:11:08.055Z,272.30
2023-01-18T02:12:08.082Z,274.80
2023-01-18T02:13:08.015Z,282.20
2023-01-18T02:14:07.984Z,249.60
2023-01-18T02:15:08.000Z,241.90
2023-01-18T02:16:07.996Z,241.70
2023-01-18T02:17:08.033Z,224.60
2023-01-18T02:18:07.995Z,208.00
2023-01-18T02:19:07.959Z,353.40
2023-01-18T02:20:07.930Z,386.00
2023-01-18T02:21:07.939Z,383.50
2023-01-18T02:22:07.912Z,397.40
2023-01-18T02:23:07.953Z,398.30
2023-01-18T02:24:07.904Z,390.30
2023-01-18T02:25:07.878Z,206.60
2023-01-18T02:26:07.871Z,251.40
2023-01-18T02:27:07.845Z,300.90
2023-01-18T02:28:07.884Z,212.70
2023-01-18T02:29:07.827Z,291.50
2023-01-18T02:30:07.822Z,374.80
2023-01-18T02:31:07.842Z,227.70
2023-01-18T02:32:07.791Z,271.20
2023-01-18T02:33:07.821Z,274.50
2023-01-18T02:34:07.779Z,218.90
2023-01-18T02:35:07.747Z,376.60
2023-01-18T02:36:07.766Z,465.90
2023-01-18T02:37:07.723Z,431.30
2023-01-18T02:38:07.755Z,429.50
2023-01-18T02:39:09.945Z,386.20
2023-01-18T02:40:07.707Z,231.30
2023-01-18T02:41:07.693Z,341.70
2023-01-18T02:42:07.679Z,344.60
2023-01-18T02:43:07.711Z,278.20
2023-01-18T02:44:07.673Z,224.40
2023-01-18T02:45:07.634Z,371.70
2023-01-18T02:46:07.707Z,352.70
2023-01-18T02:47:07.628Z,486.40
2023-01-18T02:48:07.662Z,494.90
2023-01-18T02:49:07.599Z,505.60
2023-01-18T02:50:07.628Z,518.40
2023-01-18T02:51:07.598Z,245.90
2023-01-18T02:52:07.574Z,257.20
2023-01-18T02:53:07.601Z,457.70
2023-01-18T02:54:07.556Z,514.60
2023-01-18T02:55:07.560Z,475.60
2023-01-18T02:56:07.532Z,469.60
2023-01-18T02:57:07.508Z,443.30
2023-01-18T02:58:07.553Z,336.50
2023-01-18T02:59:07.502Z,540.60
2023-01-18T03:00:07.491Z,529.10
2023-01-18T03:01:07.760Z,526.90
2023-01-18T03:02:07.485Z,522.90
2023-01-18T03:03:07.484Z,520.40
2023-01-18T03:04:07.441Z,515.00
2023-01-18T03:05:07.416Z,243.40
2023-01-18T03:06:07.407Z,456.90
2023-01-18T03:07:07.396Z,474.70
2023-01-18T03:08:07.425Z,459.40
2023-01-18T03:09:07.374Z,266.20
2023-01-18T03:10:07.366Z,497.70
2023-01-18T03:11:07.345Z,530.00
2023-01-18T03:12:07.352Z,528.30
2023-01-18T03:13:07.368Z,518.20
2023-01-18T03:14:07.324Z,244.50
2023-01-18T03:15:07.298Z,262.00
2023-01-18T03:16:07.370Z,431.20
2023-01-18T03:17:07.276Z,254.00
2023-01-18T03:18:07.324Z,267.70
2023-01-18T03:19:07.274Z,508.20
2023-01-18T03:20:07.263Z,498.00
2023-01-18T03:21:07.250Z,484.70
2023-01-18T03:22:07.233Z,477.10
2023-01-18T03:23:07.302Z,352.90
2023-01-18T03:24:07.239Z,249.20
2023-01-18T03:25:07.207Z,454.50
2023-01-18T03:26:07.191Z,428.20
2023-01-18T03:27:07.177Z,478.50
2023-01-18T03:28:07.216Z,476.50
2023-01-18T03:29:07.143Z,453.20
2023-01-18T03:30:07.158Z,446.40
2023-01-18T03:31:07.237Z,428.20
2023-01-18T03:32:07.128Z,406.00
2023-01-18T03:33:07.155Z,233.50
2023-01-18T03:34:07.098Z,299.50
2023-01-18T03:35:07.094Z,371.30
2023-01-18T03:36:07.065Z,350.20
2023-01-18T03:37:07.076Z,251.50
2023-01-18T03:38:07.098Z,246.40
2023-01-18T03:39:07.042Z,338.80
2023-01-18T03:40:07.049Z,372.00
2023-01-18T03:41:07.047Z,343.30
2023-01-18T03:42:07.032Z,206.50
2023-01-18T03:43:07.050Z,194.50
2023-01-18T03:44:06.987Z,234.20
2023-01-18T03:45:06.969Z,196.40
2023-01-18T03:46:06.973Z,393.70
2023-01-18T03:47:06.947Z,354.40
2023-01-18T03:48:06.984Z,355.00
2023-01-18T03:49:06.919Z,255.60
2023-01-18T03:50:06.929Z,212.80
2023-01-18T03:51:06.915Z,374.20
2023-01-18T03:52:06.907Z,397.40
2023-01-18T03:53:06.935Z,397.00
2023-01-18T03:54:06.889Z,366.40
2023-01-18T03:55:06.867Z,372.60
2023-01-18T03:56:06.854Z,360.00
2023-01-18T03:57:06.844Z,177.30
2023-01-18T03:58:06.881Z,214.70
2023-01-18T03:59:06.813Z,205.80
2023-01-18T04:00:06.810Z,312.60
2023-01-18T04:01:06.826Z,185.00
2023-01-18T04:02:06.823Z,184.70
2023-01-18T04:03:06.834Z,353.20
2023-01-18T04:04:06.762Z,359.70
2023-01-18T04:05:06.730Z,340.80
2023-01-18T04:06:06.718Z,343.60
2023-01-18T04:07:06.730Z,327.10
2023-01-18T04:08:06.763Z,334.20
2023-01-18T04:09:06.710Z,327.60
2023-01-18T04:10:06.690Z,286.80
2023-01-18T04:11:06.676Z,167.50
2023-01-18T04:12:06.677Z,209.90
2023-01-18T04:13:06.705Z,170.20
2023-01-18T04:14:06.647Z,207.00
2023-01-18T04:15:06.632Z,197.50
2023-01-18T04:16:06.661Z,396.40
2023-01-18T04:17:06.622Z,796.50
2023-01-18T04:18:06.648Z,555.70
2023-01-18T04:19:06.589Z,400.80
2023-01-18T04:20:06.583Z,402.60
2023-01-18T04:21:06.590Z,420.90
2023-01-18T04:22:08.373Z,429.00
2023-01-18T04:23:06.585Z,431.20
2023-01-18T04:24:06.547Z,425.10
2023-01-18T04:25:06.565Z,425.70
2023-01-18T04:26:06.530Z,437.70
2023-01-18T04:27:06.509Z,432.80
2023-01-18T04:28:06.551Z,430.80
2023-01-18T04:29:06.478Z,429.30
2023-01-18T04:30:06.478Z,426.60
2023-01-18T04:31:06.492Z,434.10
2023-01-18T04:32:06.453Z,433.60
2023-01-18T04:33:06.484Z,436.60
2023-01-18T04:34:06.431Z,435.40
2023-01-18T04:35:06.416Z,444.00
2023-01-18T04:36:06.403Z,442.00
2023-01-18T04:37:06.398Z,438.80
2023-01-18T04:38:06.448Z,435.30
2023-01-18T04:39:06.375Z,437.30
2023-01-18T04:40:06.382Z,169.70
2023-01-18T04:41:06.355Z,165.70
2023-01-18T04:42:06.357Z,172.90
2023-01-18T04:43:06.391Z,146.00
2023-01-18T04:44:06.331Z,203.10
2023-01-18T04:45:06.317Z,193.50
2023-01-18T04:46:06.303Z,289.90
2023-01-18T04:47:06.280Z,447.50
2023-01-18T04:48:06.323Z,388.20
2023-01-18T04:49:06.274Z,387.70
2023-01-18T04:50:06.270Z,380.90
2023-01-18T04:51:06.231Z,367.30
2023-01-18T04:52:06.241Z,157.80
2023-01-18T04:53:06.256Z,158.70
2023-01-18T04:54:06.220Z,153.20
2023-01-18T04:55:06.184Z,164.90
2023-01-18T04:56:06.199Z,166.00
2023-01-18T04:57:06.163Z,163.10
2023-01-18T04:58:06.208Z,313.40
2023-01-18T04:59:06.145Z,433.30
2023-01-18T05:00:08.571Z,381.70
2023-01-18T05:01:06.221Z,387.50
2023-01-18T05:02:06.128Z,369.90
2023-01-18T05:03:06.150Z,387.00
2023-01-18T05:04:06.079Z,291.80
2023-01-18T05:05:06.077Z,106.10
2023-01-18T05:06:06.069Z,261.10
2023-01-18T05:07:06.057Z,399.70
2023-01-18T05:08:06.114Z,418.80
2023-01-18T05:09:06.050Z,292.30
2023-01-18T05:10:06.059Z,277.80
2023-01-18T05:11:06.006Z,121.80
2023-01-18T05:12:05.997Z,108.10
2023-01-18T05:13:06.045Z,127.50
2023-01-18T05:14:05.977Z,156.60
2023-01-18T05:15:06.003Z,125.30
2023-01-18T05:16:06.386Z,127.70
2023-01-18T05:17:05.953Z,118.30
2023-01-18T05:18:05.989Z,115.80
2023-01-18T05:19:05.967Z,217.70
2023-01-18T05:20:05.940Z,508.30
2023-01-18T05:21:05.896Z,467.80
2023-01-18T05:22:05.891Z,462.70
2023-01-18T05:23:05.874Z,452.80
2023-01-18T05:24:05.921Z,446.70
2023-01-18T05:25:05.854Z,107.90
2023-01-18T05:26:05.857Z,111.50
2023-01-18T05:27:05.833Z,111.30
2023-01-18T05:28:05.829Z,108.10
2023-01-18T05:29:05.856Z,119.60
2023-01-18T05:30:06.895Z,106.80
2023-01-18T05:31:05.819Z,507.70
2023-01-18T05:32:05.806Z,520.40
2023-01-18T05:33:05.764Z,510.10
2023-01-18T05:34:05.808Z,516.90
2023-01-18T05:35:05.746Z,514.90
2023-01-18T05:36:05.747Z,514.60
2023-01-18T05:37:05.740Z,514.10
2023-01-18T05:38:05.721Z,511.70
2023-01-18T05:39:05.770Z,502.50
2023-01-18T05:40:05.716Z,505.20
2023-01-18T05:41:05.683Z,503.30
2023-01-18T05:42:05.707Z,409.90
2023-01-18T05:43:05.656Z,420.40
2023-01-18T05:44:05.688Z,428.60
2023-01-18T05:45:05.633Z,432.30
2023-01-18T05:46:05.666Z,421.90
2023-01-18T05:47:05.620Z,270.10
2023-01-18T05:48:05.622Z,112.90
2023-01-18T05:49:05.639Z,94.30
2023-01-18T05:50:05.592Z,118.00
2023-01-18T05:51:05.566Z,119.40
2023-01-18T05:52:05.568Z,102.80
2023-01-18T05:53:05.539Z,121.80
2023-01-18T05:54:05.587Z,114.20
2023-01-18T05:55:05.555Z,104.60
2023-01-18T05:56:05.548Z,119.90
2023-01-18T05:57:05.507Z,130.50
2023-01-18T05:58:05.532Z,123.40
2023-01-18T05:59:05.535Z,166.10
2023-01-18T06:00:05.485Z,424.70
2023-01-18T06:01:05.480Z,435.40
2023-01-18T06:02:05.495Z,397.70
2023-01-18T06:03:05.445Z,395.30
2023-01-18T06:04:05.513Z,381.50
2023-01-18T06:05:05.412Z,331.00
2023-01-18T06:06:05.405Z,129.60
2023-01-18T06:07:05.393Z,124.70
2023-01-18T06:08:05.393Z,133.50
2023-01-18T06:09:05.414Z,381.90
2023-01-18T06:10:05.352Z,362.80
2023-01-18T06:11:05.365Z,216.80
2023-01-18T06:12:05.339Z,109.10
2023-01-18T06:13:05.336Z,137.30
2023-01-18T06:14:05.363Z,109.10
2023-01-18T06:15:05.299Z,121.70
2023-01-18T06:16:05.332Z,121.00
2023-01-18T06:17:05.289Z,128.30
2023-01-18T06:18:05.275Z,349.00
2023-01-18T06:19:05.320Z,369.70
2023-01-18T06:20:05.257Z,355.90
2023-01-18T06:21:05.257Z,360.50
2023-01-18T06:22:05.229Z,215.80
2023-01-18T06:23:05.231Z,123.90
2023-01-18T06:24:05.255Z,155.60
2023-01-18T06:25:05.185Z,124.30
2023-01-18T06:26:05.182Z,385.10
2023-01-18T06:27:05.176Z,353.80
2023-01-18T06:28:05.140Z,325.40
2023-01-18T06:29:05.188Z,89.60
2023-01-18T06:30:05.142Z,114.10
2023-01-18T06:31:05.126Z,109.80
2023-01-18T06:32:05.129Z,118.70
2023-01-18T06:33:05.102Z,110.90
2023-01-18T06:34:05.139Z,108.10
2023-01-18T06:35:05.083Z,101.40
2023-01-18T06:36:05.069Z,312.80
2023-01-18T06:37:05.060Z,103.20
2023-01-18T06:38:05.040Z,110.60
2023-01-18T06:39:05.112Z,101.90
2023-01-18T06:40:05.057Z,164.50
2023-01-18T06:41:05.010Z,325.80
2023-01-18T06:42:05.013Z,306.90
2023-01-18T06:43:05.018Z,148.10
2023-01-18T06:44:05.034Z,110.00
2023-01-18T06:45:04.975Z,98.50
2023-01-18T06:46:05.028Z,109.00
2023-01-18T06:47:04.961Z,99.40
2023-01-18T06:48:04.952Z,112.60
2023-01-18T06:49:04.965Z,397.80
2023-01-18T06:50:04.916Z,458.90
2023-01-18T06:51:04.907Z,459.40
2023-01-18T06:52:04.897Z,463.70
2023-01-18T06:53:04.914Z,467.10
2023-01-18T06:54:04.917Z,452.40
2023-01-18T06:55:04.878Z,452.50
2023-01-18T06:56:04.855Z,449.30
2023-01-18T06:57:04.846Z,456.10
2023-01-18T06:58:04.827Z,454.60
2023-01-18T06:59:07.020Z,457.20
2023-01-18T07:00:04.794Z,434.50
2023-01-18T07:01:04.845Z,448.20
2023-01-18T07:02:04.854Z,430.60
2023-01-18T07:03:04.777Z,331.40
2023-01-18T07:04:04.842Z,399.50
2023-01-18T07:05:04.745Z,417.20
2023-01-18T07:06:04.758Z,415.60
2023-01-18T07:07:04.731Z,430.70
2023-01-18T07:08:04.719Z,434.20
2023-01-18T07:09:04.743Z,449.70
2023-01-18T07:10:04.699Z,447.40
2023-01-18T07:11:04.695Z,446.00
2023-01-18T07:12:04.661Z,430.50
2023-01-18T07:13:04.656Z,420.40
2023-01-18T07:14:04.694Z,402.60
2023-01-18T07:15:16.439Z,407.90
2023-01-18T07:16:05.620Z,405.40
2023-01-18T07:17:04.613Z,424.80
2023-01-18T07:18:04.612Z,443.70
2023-01-18T07:19:04.670Z,453.80
2023-01-18T07:20:04.579Z,155.20
2023-01-18T07:21:04.595Z,120.40
2023-01-18T07:22:04.560Z,129.10
2023-01-18T07:23:04.548Z,115.90
2023-01-18T07:24:04.586Z,93.00
2023-01-18T07:25:04.551Z,125.60
2023-01-18T07:26:04.511Z,135.80
2023-01-18T07:27:04.510Z,144.70
2023-01-18T07:28:04.497Z,389.20
2023-01-18T07:29:04.522Z,531.80
2023-01-18T07:30:04.468Z,504.00
2023-01-18T07:31:04.455Z,465.90
2023-01-18T07:32:04.483Z,462.60
2023-01-18T07:33:04.431Z,130.30
2023-01-18T07:34:04.472Z,134.90
2023-01-18T07:35:04.410Z,132.20
2023-01-18T07:36:04.410Z,149.30
2023-01-18T07:37:04.391Z,149.40
2023-01-18T07:38:04.387Z,140.60
2023-01-18T07:39:04.412Z,146.50
2023-01-18T07:40:04.357Z,136.20
2023-01-18T07:41:04.367Z,148.70
2023-01-18T07:42:04.346Z,154.50
2023-01-18T07:43:04.334Z,144.80
2023-01-18T07:44:04.356Z,197.10
2023-01-18T07:45:04.322Z,211.30
2023-01-18T07:46:04.351Z,178.40
2023-01-18T07:47:04.280Z,208.00
2023-01-18T07:48:04.267Z,243.90
2023-01-18T07:49:04.299Z,471.30
2023-01-18T07:50:04.243Z,464.00
2023-01-18T07:51:04.244Z,467.70
2023-01-18T07:52:04.224Z,439.50
2023-01-18T07:53:04.209Z,228.20
2023-01-18T07:54:04.260Z,175.60
2023-01-18T07:55:06.559Z,188.40
2023-01-18T07:56:04.172Z,173.40
2023-01-18T07:57:04.172Z,185.90
2023-01-18T07:58:04.150Z,185.50
2023-01-18T07:59:04.192Z,207.20
2023-01-18T08:00:04.135Z,203.80
2023-01-18T08:01:04.187Z,225.30
2023-01-18T08:02:04.139Z,229.90
2023-01-18T08:03:04.623Z,199.50
2023-01-18T08:04:04.180Z,201.60
2023-01-18T08:05:04.075Z,206.90
2023-01-18T08:06:04.070Z,229.60
2023-01-18T08:07:04.069Z,203.00
2023-01-18T08:08:04.060Z,198.80
2023-01-18T08:09:04.087Z,193.80
2023-01-18T08:10:04.042Z,203.50
2023-01-18T08:11:04.056Z,199.30
2023-01-18T08:12:04.005Z,217.00
2023-01-18T08:13:04.008Z,218.20
2023-01-18T08:14:04.041Z,176.10
2023-01-18T08:15:03.964Z,179.60
2023-01-18T08:16:04.031Z,236.90
2023-01-18T08:17:03.958Z,194.10
2023-01-18T08:18:03.957Z,203.90
2023-01-18T08:19:03.969Z,219.20
2023-01-18T08:20:03.926Z,175.80
2023-01-18T08:21:03.913Z,534.80
2023-01-18T08:22:03.888Z,499.80
2023-01-18T08:23:03.895Z,464.10
2023-01-18T08:24:03.900Z,146.30
2023-01-18T08:25:03.839Z,176.10
2023-01-18T08:26:03.859Z,163.00
2023-01-18T08:27:03.838Z,152.20
2023-01-18T08:28:03.832Z,141.30
2023-01-18T08:29:03.812Z,132.30
2023-01-18T08:30:03.836Z,137.10
2023-01-18T08:31:03.813Z,124.20
2023-01-18T08:32:03.774Z,129.30
2023-01-18T08:33:03.768Z,141.50
2023-01-18T08:34:03.777Z,112.20
2023-01-18T08:35:03.822Z,162.60
2023-01-18T08:36:03.729Z,434.00
2023-01-18T08:37:03.759Z,409.60
2023-01-18T08:38:03.686Z,403.80
2023-01-18T08:39:03.720Z,97.90
2023-01-18T08:40:03.749Z,105.30
2023-01-18T08:41:03.696Z,105.20
2023-01-18T08:42:03.657Z,108.10
2023-01-18T08:43:03.643Z,104.10
2023-01-18T08:44:03.652Z,110.20
2023-01-18T08:45:03.710Z,87.40
2023-01-18T08:46:03.705Z,106.20
2023-01-18T08:47:03.611Z,118.20
2023-01-18T08:48:03.608Z,107.80
2023-01-18T08:49:03.612Z,113.50
2023-01-18T08:50:03.614Z,305.00
2023-01-18T08:51:03.589Z,375.70
2023-01-18T08:52:03.558Z,314.80
2023-01-18T08:53:03.557Z,284.80
2023-01-18T08:54:03.543Z,246.50
2023-01-18T08:55:03.557Z,238.20
2023-01-18T08:56:03.511Z,223.10
2023-01-18T08:57:03.571Z,181.70
2023-01-18T08:58:03.462Z,85.50
2023-01-18T08:59:03.519Z,93.90
2023-01-18T09:00:03.505Z,96.60
2023-01-18T09:01:03.499Z,98.00
2023-01-18T09:02:03.492Z,109.50
2023-01-18T09:03:03.833Z,109.00
2023-01-18T09:04:03.407Z,132.60
2023-01-18T09:05:03.454Z,105.50
2023-01-18T09:06:03.401Z,95.50
2023-01-18T09:07:03.405Z,265.50
2023-01-18T09:08:03.359Z,264.20
2023-01-18T09:09:03.387Z,259.20
2023-01-18T09:10:03.441Z,257.60
2023-01-18T09:11:03.354Z,266.40
2023-01-18T09:12:03.350Z,259.20
2023-01-18T09:13:03.326Z,266.50
2023-01-18T09:14:03.300Z,234.40
2023-01-18T09:15:03.357Z,183.80
2023-01-18T09:16:03.349Z,97.30
2023-01-18T09:17:03.269Z,97.90
2023-01-18T09:18:03.256Z,89.70
2023-01-18T09:19:03.231Z,105.90
2023-01-18T09:20:03.304Z,101.70
2023-01-18T09:21:03.230Z,95.10
2023-01-18T09:22:03.219Z,109.50
2023-01-18T09:23:03.220Z,92.50
2023-01-18T09:24:03.191Z,108.40
2023-01-18T09:25:03.221Z,107.70
2023-01-18T09:26:03.181Z,241.10
2023-01-18T09:27:03.166Z,240.30
2023-01-18T09:28:03.168Z,99.10
2023-01-18T09:29:03.139Z,102.90
2023-01-18T09:30:03.184Z,96.40
2023-01-18T09:31:03.180Z,113.20
2023-01-18T09:32:03.110Z,117.30
2023-01-18T09:33:03.095Z,111.50
2023-01-18T09:34:18.458Z,90.90
2023-01-18T09:35:04.121Z,126.80
2023-01-18T09:36:03.102Z,111.10
2023-01-18T09:37:03.070Z,113.30
2023-01-18T09:38:03.031Z,131.20
2023-01-18T09:39:03.037Z,119.70
2023-01-18T09:40:03.092Z,241.40
2023-01-18T09:41:03.007Z,308.50
2023-01-18T09:42:03.001Z,294.60
2023-01-18T09:43:03.010Z,275.40
2023-01-18T09:44:02.994Z,260.10
2023-01-18T09:45:03.000Z,117.70
2023-01-18T09:46:02.966Z,113.70
2023-01-18T09:47:02.961Z,118.00
2023-01-18T09:48:02.920Z,120.80
2023-01-18T09:49:02.906Z,110.70
2023-01-18T09:50:02.960Z,132.60
2023-01-18T09:51:02.904Z,135.40
2023-01-18T09:52:02.924Z,327.20
2023-01-18T09:53:02.885Z,334.70
2023-01-18T09:54:02.871Z,334.70
2023-01-18T09:55:02.901Z,337.20
2023-01-18T09:56:02.863Z,338.20
2023-01-18T09:57:02.851Z,340.20
2023-01-18T09:58:02.820Z,335.10
2023-01-18T09:59:02.802Z,334.60
2023-01-18T10:00:02.801Z,305.90
2023-01-18T10:01:02.950Z,288.50
2023-01-18T10:02:02.887Z,284.00
2023-01-18T10:03:02.781Z,266.10
2023-01-18T10:04:02.765Z,96.20
2023-01-18T10:05:02.727Z,125.30
2023-01-18T10:06:02.777Z,128.60
2023-01-18T10:07:02.717Z,114.50
2023-01-18T10:08:02.783Z,115.80
2023-01-18T10:09:02.697Z,130.30
2023-01-18T10:10:02.698Z,130.20
2023-01-18T10:11:02.753Z,122.80
2023-01-18T10:12:02.666Z,123.00
2023-01-18T10:13:02.652Z,130.40
2023-01-18T10:14:02.643Z,118.80
2023-01-18T10:15:02.608Z,135.10
2023-01-18T10:16:02.771Z,131.40
2023-01-18T10:17:02.614Z,164.60
2023-01-18T10:18:02.596Z,121.10
2023-01-18T10:19:02.574Z,160.20
2023-01-18T10:20:02.568Z,169.70
2023-01-18T10:21:02.650Z,260.20
2023-01-18T10:22:02.562Z,156.40
2023-01-18T10:23:02.517Z,113.20
2023-01-18T10:24:02.533Z,128.00
2023-01-18T10:25:02.647Z,98.40
2023-01-18T10:26:02.560Z,128.10
2023-01-18T10:27:02.508Z,158.00
2023-01-18T10:28:02.486Z,97.60
2023-01-18T10:29:02.468Z,123.00
2023-01-18T10:30:02.466Z,183.60
2023-01-18T10:31:02.489Z,149.60
2023-01-18T10:32:02.453Z,104.80
2023-01-18T10:33:02.822Z,184.30
2023-01-18T10:34:02.433Z,128.30
2023-01-18T10:35:02.411Z,118.40
2023-01-18T10:36:02.443Z,129.50
2023-01-18T10:37:02.385Z,110.80
2023-01-18T10:38:02.483Z,171.20
2023-01-18T10:39:02.360Z,149.60
2023-01-18T10:40:02.367Z,262.80
2023-01-18T10:41:02.423Z,248.70
2023-01-18T10:42:03.557Z,227.70
2023-01-18T10:43:02.651Z,110.40
2023-01-18T10:44:02.314Z,115.80
2023-01-18T10:45:02.288Z,146.30
2023-01-18T10:46:02.402Z,110.30
2023-01-18T10:47:02.282Z,131.00
2023-01-18T10:48:02.248Z,106.00
2023-01-18T10:49:02.255Z,156.70
2023-01-18T10:50:02.245Z,126.60
2023-01-18T10:51:02.284Z,155.30
2023-01-18T10:52:02.218Z,128.10
2023-01-18T10:53:02.316Z,175.60
2023-01-18T10:54:02.200Z,260.70
2023-01-18T10:55:02.185Z,242.20
2023-01-18T10:56:02.378Z,225.70
2023-01-18T10:57:02.159Z,111.30
2023-01-18T10:58:02.194Z,104.70
2023-01-18T10:59:02.126Z,141.90
2023-01-18T11:00:02.131Z,81.60
2023-01-18T11:01:02.326Z,109.80
2023-01-18T11:02:02.343Z,126.90
2023-01-18T11:03:02.502Z,170.90
2023-01-18T11:04:02.083Z,128.80
2023-01-18T11:05:02.072Z,133.50
2023-01-18T11:06:02.104Z,124.50
2023-01-18T11:07:02.047Z,97.30
2023-01-18T11:08:02.771Z,123.50
2023-01-18T11:09:02.008Z,114.50
2023-01-18T11:10:02.031Z,164.60
2023-01-18T11:11:02.078Z,261.60
2023-01-18T11:12:02.001Z,242.30
2023-01-18T11:13:02.031Z,230.00
2023-01-18T11:14:01.951Z,182.30
2023-01-18T11:15:01.943Z,103.80
2023-01-18T11:16:01.992Z,106.00
2023-01-18T11:17:01.937Z,108.70
2023-01-18T11:18:01.930Z,106.50
2023-01-18T11:19:01.945Z,100.00
2023-01-18T11:20:01.907Z,129.90
2023-01-18T11:21:01.936Z,119.70
2023-01-18T11:22:01.897Z,139.80
2023-01-18T11:23:02.337Z,102.20
2023-01-18T11:24:01.849Z,96.40
2023-01-18T11:25:01.837Z,274.10
2023-01-18T11:26:01.915Z,263.60
2023-01-18T11:27:01.867Z,241.90
2023-01-18T11:28:02.092Z,227.30
2023-01-18T11:29:01.812Z,119.90
2023-01-18T11:30:01.775Z,157.20
2023-01-18T11:31:01.811Z,114.40
2023-01-18T11:32:01.872Z,113.80
2023-01-18T11:33:01.789Z,151.10
2023-01-18T11:34:01.738Z,160.10
2023-01-18T11:35:04.121Z,173.20
2023-01-18T11:36:01.781Z,269.30
2023-01-18T11:37:01.703Z,248.70
2023-01-18T11:38:02.219Z,248.70
2023-01-18T11:39:01.680Z,234.00
2023-01-18T11:40:01.696Z,110.80
2023-01-18T11:41:01.697Z,123.40
2023-01-18T11:42:01.655Z,126.80
2023-01-18T11:43:01.639Z,128.00
2023-01-18T11:44:01.646Z,97.20
2023-01-18T11:45:01.628Z,117.10
2023-01-18T11:46:01.893Z,103.00
2023-01-18T11:47:01.583Z,112.50
2023-01-18T11:48:02.071Z,116.60
2023-01-18T11:49:01.587Z,122.60
2023-01-18T11:50:10.351Z,259.30
2023-01-18T11:51:02.594Z,287.70
2023-01-18T11:52:01.553Z,256.50
2023-01-18T11:53:01.542Z,243.50
2023-01-18T11:54:01.542Z,227.80
2023-01-18T11:55:01.480Z,119.80
2023-01-18T11:56:01.561Z,130.30
2023-01-18T11:57:01.484Z,119.50
2023-01-18T11:58:02.045Z,147.10
2023-01-18T11:59:01.461Z,101.30
2023-01-18T12:00:01.467Z,117.10
2023-01-18T12:01:01.547Z,103.20
2023-01-18T12:02:01.461Z,269.10
2023-01-18T12:03:01.681Z,250.90
2023-01-18T12:04:01.398Z,243.10
2023-01-18T12:05:01.380Z,111.40
2023-01-18T12:06:01.434Z,112.40
2023-01-18T12:07:01.377Z,128.50
2023-01-18T12:08:01.772Z,112.50
2023-01-18T12:09:01.343Z,141.60
2023-01-18T12:10:01.379Z,116.40
2023-01-18T12:11:01.348Z,150.80
2023-01-18T12:12:17.367Z,251.10
2023-01-18T12:13:02.289Z,248.60
2023-01-18T12:14:01.293Z,246.80
2023-01-18T12:15:01.263Z,236.70
2023-01-18T12:16:01.318Z,110.40
2023-01-18T12:17:01.248Z,151.40
2023-01-18T12:18:12.346Z,137.70
2023-01-18T12:19:02.232Z,123.90
2023-01-18T12:20:01.213Z,116.60
2023-01-18T12:21:01.264Z,146.40
2023-01-18T12:22:01.176Z,160.80
2023-01-18T12:23:01.164Z,189.90
2023-01-18T12:24:01.178Z,128.70
2023-01-18T12:25:01.179Z,140.20
2023-01-18T12:26:11.865Z,292.30
2023-01-18T12:27:02.156Z,304.10
2023-01-18T12:28:01.709Z,296.20